Time;durP1;ratioP1;P1;durP2;ratioP2;P2;SDS_P1;SDS_P2;PMS_P1;PMS_P2;Temp;Humidity;BMP_temperature;BMP_pressure;BME280_temperature;BME280_humidity;BME280_pressure;Samples;Min_cycle;Max_cycle;Signal;HPM_P1;HPM_P2
2021/04/28 00:02:41;;;;;;;31.20;26.38;;;;;;;;;;6064996;29;20116;-75
2021/04/28 00:05:42;;;;;;;30.88;26.63;;;;;;;;;;6067346;29;20051;-77
2021/04/28 00:08:43;;;;;;;33.38;26.40;;;;;;;;;;6064622;29;20124;-72
2021/04/28 00:11:44;;;;;;;33.83;26.60;;;;;;;;;;6065586;29;20055;-75
2021/04/28 00:14:46;;;;;;;34.35;27.20;;;;;;;;;;6067548;29;20045;-75
2021/04/28 00:17:47;;;;;;;35.42;26.95;;;;;;;;;;6067564;29;20087;-75
2021/04/28 00:20:49;;;;;;;32.88;26.13;;;;;;;;;;6066412;29;20501;-73
2021/04/28 00:23:50;;;;;;;36.35;28.23;;;;;;;;;;6065931;29;20139;-75
2021/04/28 00:26:51;;;;;;;38.28;29.20;;;;;;;;;;6064712;29;20048;-72
2021/04/28 00:29:53;;;;;;;37.97;29.13;;;;;;;;;;6060332;29;20416;-72
2021/04/28 00:32:54;;;;;;;35.47;29.30;;;;;;;;;;6064730;29;20072;-72
2021/04/28 00:35:55;;;;;;;35.70;28.95;;;;;;;;;;6064426;29;20605;-73
2021/04/28 00:38:56;;;;;;;35.95;29.25;;;;;;;;;;6066959;29;20526;-72
2021/04/28 00:41:58;;;;;;;40.22;30.85;;;;;;;;;;6061440;29;20143;-72
2021/04/28 00:45:01;;;;;;;38.30;29.92;;;;;;;;;;6064901;29;20421;-72
2021/04/28 00:48:04;;;;;;;42.67;31.13;;;;;;;;;;6065885;29;20063;-72
2021/04/28 00:51:06;;;;;;;36.88;30.60;;;;;;;;;;6063004;29;20374;-72
2021/04/28 00:54:07;;;;;;;35.90;30.38;;;;;;;;;;6053240;29;20139;-73
2021/04/28 00:57:08;;;;;;;35.50;29.17;;;;;;;;;;6057988;29;20139;-72
2021/04/28 01:00:14;;;;;;;36.83;30.67;;;;;;;;;;6070244;29;20063;-72
2021/04/28 01:03:15;;;;;;;38.72;30.33;;;;;;;;;;6361660;23;21304;-68
2021/04/28 01:06:16;;;;;;;38.00;29.92;;;;;;;;;;6080902;29;20060;-68
2021/04/28 01:09:18;;;;;;;38.65;29.50;;;;;;;;;;6088520;29;20044;-68
2021/04/28 01:12:19;;;;;;;39.58;29.60;;;;;;;;;;6079247;29;20051;-68
2021/04/28 01:15:25;;;;;;;38.30;30.27;;;;;;;;;;6092070;29;20059;-69
2021/04/28 01:18:26;;;;;;;38.05;29.83;;;;;;;;;;6090917;29;20052;-68
2021/04/28 01:21:27;;;;;;;36.90;28.90;;;;;;;;;;6092903;29;20048;-69
2021/04/28 01:24:29;;;;;;;35.45;27.65;;;;;;;;;;6091735;29;20112;-69
2021/04/28 01:27:31;;;;;;;34.30;27.77;;;;;;;;;;6092215;29;20048;-68
2021/04/28 01:30:35;;;;;;;34.00;28.52;;;;;;;;;;6088436;29;20111;-68
2021/04/28 01:33:40;;;;;;;35.13;28.10;;;;;;;;;;6089159;29;20127;-68
2021/04/28 01:36:41;;;;;;;37.65;28.15;;;;;;;;;;6088623;29;20598;-69
2021/04/28 01:39:43;;;;;;;38.20;28.88;;;;;;;;;;6088504;29;20054;-69
2021/04/28 01:42:47;;;;;;;38.15;27.65;;;;;;;;;;6086198;29;20100;-69
2021/04/28 01:45:49;;;;;;;35.10;28.25;;;;;;;;;;6088949;29;20116;-69
2021/04/28 01:48:50;;;;;;;35.47;27.27;;;;;;;;;;6087988;29;20474;-68
2021/04/28 01:51:54;;;;;;;33.88;26.85;;;;;;;;;;6092260;29;20583;-68
2021/04/28 01:54:56;;;;;;;35.15;27.50;;;;;;;;;;6093974;29;20048;-69
2021/04/28 01:57:57;;;;;;;33.65;26.73;;;;;;;;;;6090422;29;20719;-68
2021/04/28 02:00:59;;;;;;;33.30;27.48;;;;;;;;;;6082218;29;20044;-68
2021/04/28 02:04:00;;;;;;;37.25;27.38;;;;;;;;;;6093760;29;20660;-68
2021/04/28 02:07:01;;;;;;;37.00;27.73;;;;;;;;;;6095328;29;20040;-68
2021/04/28 02:10:05;;;;;;;36.63;27.00;;;;;;;;;;6093249;29;20044;-68
2021/04/28 02:13:06;;;;;;;36.08;27.15;;;;;;;;;;6095190;29;20050;-68
2021/04/28 02:16:09;;;;;;;33.17;26.88;;;;;;;;;;6094487;29;20142;-71
2021/04/28 02:19:11;;;;;;;36.85;27.13;;;;;;;;;;6095839;29;20048;-68
2021/04/28 02:22:13;;;;;;;36.40;27.35;;;;;;;;;;6095394;29;20052;-69
2021/04/28 02:25:14;;;;;;;38.95;27.77;;;;;;;;;;6094694;29;20070;-68
2021/04/28 02:28:16;;;;;;;34.00;27.13;;;;;;;;;;6085411;29;20587;-69
2021/04/28 02:31:17;;;;;;;35.38;26.40;;;;;;;;;;6095369;29;20129;-68
2021/04/28 02:34:18;;;;;;;36.60;27.88;;;;;;;;;;6094525;29;20044;-68
2021/04/28 02:37:20;;;;;;;35.75;27.65;;;;;;;;;;6093973;29;20060;-68
2021/04/28 02:40:22;;;;;;;38.97;28.20;;;;;;;;;;6085585;29;20060;-68
2021/04/28 02:43:23;;;;;;;40.83;28.63;;;;;;;;;;6085750;29;20040;-68
2021/04/28 02:46:26;;;;;;;35.50;27.50;;;;;;;;;;6087297;29;20044;-69
2021/04/28 02:49:29;;;;;;;36.03;28.02;;;;;;;;;;6084806;29;20188;-69
2021/04/28 02:52:30;;;;;;;40.88;27.98;;;;;;;;;;6084973;29;20053;-68
2021/04/28 02:55:32;;;;;;;37.30;27.77;;;;;;;;;;6086301;29;20276;-68
2021/04/28 02:58:34;;;;;;;37.45;27.65;;;;;;;;;;6084447;29;20055;-68
2021/04/28 03:01:35;;;;;;;34.38;27.30;;;;;;;;;;6080489;29;20052;-68
2021/04/28 03:04:38;;;;;;;33.95;27.10;;;;;;;;;;6083664;29;20044;-69
2021/04/28 03:07:39;;;;;;;36.75;27.83;;;;;;;;;;6088810;29;21955;-68
2021/04/28 03:10:41;;;;;;;34.80;27.45;;;;;;;;;;6090608;29;20451;-68
2021/04/28 03:13:42;;;;;;;39.08;29.08;;;;;;;;;;6056837;29;20090;-68
2021/04/28 03:16:43;;;;;;;42.95;29.05;;;;;;;;;;6091136;29;20064;-69
2021/04/28 03:19:44;;;;;;;37.80;28.65;;;;;;;;;;6095318;29;20118;-68
2021/04/28 03:22:46;;;;;;;40.78;30.17;;;;;;;;;;6091726;29;20484;-69
2021/04/28 03:25:48;;;;;;;44.70;28.92;;;;;;;;;;6087064;29;20119;-68
2021/04/28 03:28:49;;;;;;;35.20;28.00;;;;;;;;;;6081202;29;20052;-69
2021/04/28 03:31:51;;;;;;;42.15;28.48;;;;;;;;;;6083558;29;20048;-69
2021/04/28 03:34:52;;;;;;;42.08;28.33;;;;;;;;;;6082082;29;20050;-68
2021/04/28 03:37:53;;;;;;;40.10;28.90;;;;;;;;;;6089902;29;20149;-68
2021/04/28 03:40:55;;;;;;;38.90;29.10;;;;;;;;;;6093033;29;20060;-68
2021/04/28 03:43:56;;;;;;;41.00;29.27;;;;;;;;;;6087932;29;20052;-68
2021/04/28 03:46:58;;;;;;;39.00;29.40;;;;;;;;;;6088939;29;20045;-68
2021/04/28 03:49:59;;;;;;;40.40;29.25;;;;;;;;;;6086067;29;20059;-69
2021/04/28 03:53:00;;;;;;;41.00;29.50;;;;;;;;;;6089145;29;20135;-68
2021/04/28 03:56:02;;;;;;;39.35;28.65;;;;;;;;;;6092041;29;20099;-68
2021/04/28 03:59:03;;;;;;;42.50;29.50;;;;;;;;;;6090949;29;20123;-68
2021/04/28 04:02:05;;;;;;;43.92;29.73;;;;;;;;;;6091535;29;20051;-68
2021/04/28 04:05:07;;;;;;;43.35;30.40;;;;;;;;;;6089622;29;20066;-69
2021/04/28 04:08:08;;;;;;;42.67;30.40;;;;;;;;;;6092084;29;20066;-68
2021/04/28 04:11:10;;;;;;;43.28;30.75;;;;;;;;;;6093663;29;20059;-68
2021/04/28 04:14:11;;;;;;;42.30;29.70;;;;;;;;;;6084073;29;20167;-69
2021/04/28 04:17:12;;;;;;;43.13;31.35;;;;;;;;;;6087078;29;20454;-68
2021/04/28 04:20:13;;;;;;;42.42;31.20;;;;;;;;;;6090688;29;20049;-68
2021/04/28 04:23:14;;;;;;;41.63;31.52;;;;;;;;;;6082785;29;20103;-68
2021/04/28 04:26:16;;;;;;;46.00;32.45;;;;;;;;;;6083146;29;20048;-68
2021/04/28 04:29:17;;;;;;;43.50;32.47;;;;;;;;;;6083310;29;20052;-68
2021/04/28 04:32:18;;;;;;;43.05;32.45;;;;;;;;;;6084440;29;20144;-69
2021/04/28 04:35:20;;;;;;;46.95;32.63;;;;;;;;;;6087762;29;21155;-68
2021/04/28 04:38:21;;;;;;;46.65;33.75;;;;;;;;;;6087333;29;21294;-69
2021/04/28 04:41:23;;;;;;;48.03;34.00;;;;;;;;;;6090190;29;20522;-68
2021/04/28 04:44:24;;;;;;;44.80;34.67;;;;;;;;;;6087211;29;20052;-69
2021/04/28 04:47:25;;;;;;;47.90;35.83;;;;;;;;;;6087144;29;20504;-68
2021/04/28 04:50:26;;;;;;;50.08;36.38;;;;;;;;;;6087496;29;20082;-69
2021/04/28 04:53:27;;;;;;;47.55;34.88;;;;;;;;;;6088082;29;20091;-68
2021/04/28 04:56:29;;;;;;;47.47;35.85;;;;;;;;;;6086710;29;20451;-68
2021/04/28 04:59:30;;;;;;;50.60;34.90;;;;;;;;;;6087277;29;20159;-68
2021/04/28 05:02:31;;;;;;;48.10;35.97;;;;;;;;;;6085739;29;20044;-68
2021/04/28 05:05:32;;;;;;;45.25;35.55;;;;;;;;;;6088274;29;20048;-68
2021/04/28 05:08:33;;;;;;;50.60;35.35;;;;;;;;;;6087053;29;20086;-68
2021/04/28 05:11:35;;;;;;;46.80;35.13;;;;;;;;;;6085362;29;20056;-68
2021/04/28 05:14:36;;;;;;;46.70;33.75;;;;;;;;;;6087946;29;20094;-68
2021/04/28 05:17:37;;;;;;;46.08;35.13;;;;;;;;;;6089457;29;20058;-67
2021/04/28 05:20:38;;;;;;;46.60;34.90;;;;;;;;;;6092896;29;20723;-68
2021/04/28 05:23:39;;;;;;;47.10;34.60;;;;;;;;;;6096494;29;20052;-67
2021/04/28 05:26:41;;;;;;;46.83;34.83;;;;;;;;;;6095348;29;20052;-67
2021/04/28 05:29:42;;;;;;;47.97;34.58;;;;;;;;;;6095055;29;20075;-67
2021/04/28 05:32:43;;;;;;;47.85;33.78;;;;;;;;;;6090912;29;20048;-67
2021/04/28 05:35:44;;;;;;;45.90;34.40;;;;;;;;;;6082351;29;20045;-68
2021/04/28 05:38:45;;;;;;;43.30;31.80;;;;;;;;;;6088290;29;20507;-68
2021/04/28 05:41:47;;;;;;;45.72;34.05;;;;;;;;;;6092418;29;20052;-67
2021/04/28 05:44:49;;;;;;;49.72;33.22;;;;;;;;;;6085765;29;20043;-68
2021/04/28 05:47:50;;;;;;;42.92;31.48;;;;;;;;;;6085531;29;20083;-68
2021/04/28 05:50:51;;;;;;;41.13;29.90;;;;;;;;;;6083888;29;20142;-68
2021/04/28 05:53:52;;;;;;;38.95;28.13;;;;;;;;;;6092273;29;20063;-68
2021/04/28 05:56:56;;;;;;;36.50;28.02;;;;;;;;;;6094914;29;20052;-68
2021/04/28 05:59:57;;;;;;;;;;;;;;;;;;6097751;29;20138;-67
2021/04/28 06:02:58;;;;;;;34.35;26.40;;;;;;;;;;6092840;29;20613;-67
2021/04/28 06:05:59;;;;;;;34.35;26.40;;;;;;;;;;6092841;29;20127;-67
2021/04/28 06:09:00;;;;;;;35.33;24.65;;;;;;;;;;6093737;29;20128;-67
2021/04/28 06:12:02;;;;;;;34.13;25.75;;;;;;;;;;6089403;29;20106;-67
2021/04/28 06:15:04;;;;;;;32.80;24.30;;;;;;;;;;6083081;29;20127;-68
2021/04/28 06:18:06;;;;;;;35.47;25.75;;;;;;;;;;6090197;29;20048;-68
2021/04/28 06:21:07;;;;;;;36.30;22.90;;;;;;;;;;6094810;29;20128;-65
2021/04/28 06:24:09;;;;;;;30.20;22.17;;;;;;;;;;6093309;29;20063;-66
2021/04/28 06:27:11;;;;;;;26.65;20.45;;;;;;;;;;6091812;29;20074;-67
2021/04/28 06:30:13;;;;;;;27.35;21.13;;;;;;;;;;6092885;29;20063;-67
2021/04/28 06:33:14;;;;;;;26.17;20.90;;;;;;;;;;6091911;29;20048;-67
2021/04/28 06:36:15;;;;;;;25.10;20.10;;;;;;;;;;6093005;29;20052;-68
2021/04/28 06:39:16;;;;;;;22.05;18.02;;;;;;;;;;6093741;29;20159;-67
2021/04/28 06:42:19;;;;;;;23.38;18.23;;;;;;;;;;6090597;29;20225;-67
2021/04/28 06:45:20;;;;;;;25.33;19.77;;;;;;;;;;6084462;29;20100;-67
2021/04/28 06:48:21;;;;;;;24.40;19.63;;;;;;;;;;6087443;29;20054;-65
2021/04/28 06:51:22;;;;;;;25.02;18.67;;;;;;;;;;6091738;29;20416;-66
2021/04/28 06:54:23;;;;;;;23.80;20.40;;;;;;;;;;6092158;29;20055;-68
2021/04/28 06:57:25;;;;;;;26.23;20.08;;;;;;;;;;6083956;29;20050;-67
2021/04/28 07:00:27;;;;;;;29.02;20.80;;;;;;;;;;6083893;29;20060;-67
2021/04/28 07:03:29;;;;;;;22.45;19.02;;;;;;;;;;6081585;29;20151;-68
2021/04/28 07:06:30;;;;;;;26.45;19.85;;;;;;;;;;6082552;29;20053;-67
2021/04/28 07:09:31;;;;;;;23.02;18.27;;;;;;;;;;6068840;29;20086;-67
2021/04/28 07:12:33;;;;;;;23.67;17.85;;;;;;;;;;6081474;29;20512;-68
2021/04/28 07:15:34;;;;;;;23.95;16.85;;;;;;;;;;6089323;29;20086;-67
2021/04/28 07:18:35;;;;;;;20.98;17.13;;;;;;;;;;6093444;29;20051;-68
2021/04/28 07:21:36;;;;;;;23.27;18.90;;;;;;;;;;6095777;29;20054;-67
2021/04/28 07:24:37;;;;;;;24.27;19.15;;;;;;;;;;6092466;29;20094;-68
2021/04/28 07:27:39;;;;;;;27.90;21.10;;;;;;;;;;6095563;29;20143;-68
2021/04/28 07:30:41;;;;;;;26.88;20.35;;;;;;;;;;6084536;29;20052;-68
2021/04/28 07:33:42;;;;;;;28.17;21.55;;;;;;;;;;6077511;29;20056;-68
2021/04/28 07:36:43;;;;;;;22.50;16.73;;;;;;;;;;6094797;29;20563;-68
2021/04/28 07:39:45;;;;;;;26.63;18.85;;;;;;;;;;6092235;29;20070;-67
2021/04/28 07:42:46;;;;;;;24.63;17.15;;;;;;;;;;6090359;29;20051;-68
2021/04/28 07:45:47;;;;;;;22.92;16.85;;;;;;;;;;6080146;29;20052;-68
2021/04/28 07:48:48;;;;;;;21.67;16.25;;;;;;;;;;6067802;29;20473;-66
2021/04/28 07:51:50;;;;;;;23.17;17.27;;;;;;;;;;6083802;29;20060;-69
2021/04/28 07:54:51;;;;;;;22.00;16.90;;;;;;;;;;6091969;29;20492;-68
2021/04/28 07:57:53;;;;;;;20.20;15.85;;;;;;;;;;6093175;29;20499;-68
2021/04/28 08:00:54;;;;;;;19.67;15.02;;;;;;;;;;6091075;29;20052;-65
2021/04/28 08:03:55;;;;;;;19.42;15.70;;;;;;;;;;6084282;29;20110;-66
2021/04/28 08:06:56;;;;;;;21.65;17.75;;;;;;;;;;6085245;29;20048;-68
2021/04/28 08:09:58;;;;;;;22.10;15.82;;;;;;;;;;6096133;29;20044;-68
2021/04/28 08:13:01;;;;;;;19.27;15.88;;;;;;;;;;6092812;29;20055;-66
2021/04/28 08:16:02;;;;;;;19.58;14.23;;;;;;;;;;6091610;29;20140;-67
2021/04/28 08:19:03;;;;;;;17.25;14.00;;;;;;;;;;6093398;29;21291;-66
2021/04/28 08:22:05;;;;;;;16.92;14.25;;;;;;;;;;6089642;29;20132;-66
2021/04/28 08:25:08;;;;;;;16.52;12.48;;;;;;;;;;6085776;29;20456;-66
2021/04/28 08:28:11;;;;;;;18.98;11.95;;;;;;;;;;6084692;29;20044;-66
2021/04/28 08:31:13;;;;;;;14.95;12.57;;;;;;;;;;6085298;29;20487;-68
2021/04/28 08:34:14;;;;;;;15.18;12.68;;;;;;;;;;6087641;29;20048;-69
2021/04/28 08:37:15;;;;;;;17.58;13.60;;;;;;;;;;6092217;29;20052;-68
2021/04/28 08:40:17;;;;;;;17.15;14.20;;;;;;;;;;6096617;29;20067;-69
2021/04/28 08:43:23;;;;;;;16.35;12.05;;;;;;;;;;6088511;29;20747;-66
2021/04/28 08:46:24;;;;;;;13.95;12.27;;;;;;;;;;6089942;29;20429;-67
2021/04/28 08:49:25;;;;;;;14.85;12.82;;;;;;;;;;6086424;29;20047;-66
2021/04/28 08:52:26;;;;;;;15.93;12.63;;;;;;;;;;6086442;29;20059;-68
2021/04/28 08:55:28;;;;;;;15.90;12.63;;;;;;;;;;6092175;29;20059;-66
2021/04/28 08:58:29;;;;;;;17.38;14.25;;;;;;;;;;6096339;29;20440;-66
2021/04/28 09:01:32;;;;;;;19.40;14.88;;;;;;;;;;6096216;29;20079;-68
2021/04/28 09:04:33;;;;;;;18.85;14.95;;;;;;;;;;6096332;29;20134;-69
2021/04/28 09:07:34;;;;;;;16.63;14.35;;;;;;;;;;6095002;29;20555;-68
2021/04/28 09:10:35;;;;;;;19.45;15.75;;;;;;;;;;6094317;29;20040;-69
2021/04/28 09:13:37;;;;;;;17.45;13.68;;;;;;;;;;6057165;29;20052;-67
2021/04/28 09:16:40;;;;;;;18.58;13.43;;;;;;;;;;6080475;29;20062;-68
2021/04/28 09:19:43;;;;;;;16.17;14.00;;;;;;;;;;6082832;29;20053;-65
2021/04/28 09:22:49;;;;;;;18.25;14.88;;;;;;;;;;6085158;29;20044;-68
2021/04/28 09:25:51;;;;;;;21.23;16.00;;;;;;;;;;6063887;29;20519;-68
2021/04/28 09:28:53;;;;;;;19.92;15.48;;;;;;;;;;6083794;29;20143;-69
2021/04/28 09:32:04;;;;;;;21.77;15.48;;;;;;;;;;6085712;29;20151;-66
2021/04/28 09:35:13;;;;;;;19.98;15.70;;;;;;;;;;6071700;29;20583;-66
2021/04/28 09:38:14;;;;;;;19.65;16.23;;;;;;;;;;6084929;29;20049;-66
2021/04/28 09:41:32;;;;;;;20.77;16.50;;;;;;;;;;6085752;29;20055;-67
2021/04/28 09:44:36;;;;;;;21.90;16.48;;;;;;;;;;6093026;29;20048;-68
2021/04/28 09:47:38;;;;;;;22.20;16.90;;;;;;;;;;6087460;29;20088;-66
2021/04/28 09:50:39;;;;;;;20.65;17.38;;;;;;;;;;6084507;29;20058;-67
2021/04/28 09:53:40;;;;;;;21.15;17.95;;;;;;;;;;6096291;29;20078;-66
2021/04/28 09:56:42;;;;;;;20.25;16.23;;;;;;;;;;6094700;29;20056;-66
2021/04/28 09:59:47;;;;;;;19.10;15.82;;;;;;;;;;6084240;29;20044;-67
2021/04/28 10:02:55;;;;;;;21.00;16.65;;;;;;;;;;6086461;29;20138;-66
2021/04/28 10:05:57;;;;;;;17.88;15.98;;;;;;;;;;6096015;29;20195;-66
2021/04/28 10:08:59;;;;;;;18.63;15.82;;;;;;;;;;6096046;29;20048;-66
2021/04/28 10:12:02;;;;;;;18.92;15.60;;;;;;;;;;6091278;29;20055;-66
2021/04/28 10:15:06;;;;;;;17.52;14.93;;;;;;;;;;6084911;29;20041;-66
2021/04/28 10:18:10;;;;;;;19.45;14.55;;;;;;;;;;6087380;29;20520;-66
2021/04/28 10:21:11;;;;;;;18.27;15.15;;;;;;;;;;6089515;29;20447;-66
2021/04/28 10:24:12;;;;;;;19.30;15.82;;;;;;;;;;6094962;29;20052;-66
2021/04/28 10:27:16;;;;;;;21.60;15.48;;;;;;;;;;6091476;29;20155;-66
2021/04/28 10:30:19;;;;;;;19.48;16.85;;;;;;;;;;6089989;29;20044;-66
2021/04/28 10:33:23;;;;;;;16.55;14.63;;;;;;;;;;6093349;29;20055;-66
2021/04/28 10:36:24;;;;;;;19.10;15.70;;;;;;;;;;6084512;29;20056;-66
2021/04/28 10:39:27;;;;;;;17.70;14.88;;;;;;;;;;6081332;29;20184;-66
2021/04/28 10:42:33;;;;;;;20.23;16.17;;;;;;;;;;6083344;29;20052;-66
2021/04/28 10:45:38;;;;;;;21.77;15.63;;;;;;;;;;6086315;29;20044;-67
2021/04/28 10:48:40;;;;;;;18.45;16.02;;;;;;;;;;6081699;29;20052;-68
2021/04/28 10:51:49;;;;;;;19.65;16.00;;;;;;;;;;6330510;27;20745;-67
2021/04/28 10:54:50;;;;;;;19.08;14.95;;;;;;;;;;6323318;28;20108;-66
2021/04/28 10:57:51;;;;;;;16.52;14.63;;;;;;;;;;6321453;28;20039;-67
2021/04/28 11:01:11;;;;;;;17.05;14.85;;;;;;;;;;6328133;28;20505;-69
2021/04/28 11:04:14;;;;;;;21.42;15.38;;;;;;;;;;6345475;27;20655;-68
2021/04/28 11:07:42;;;;;;;20.40;16.08;;;;;;;;;;6345821;27;20460;-68
2021/04/28 11:10:43;;;;;;;19.77;14.57;;;;;;;;;;6346992;27;20182;-68
2021/04/28 11:13:44;;;;;;;16.52;14.73;;;;;;;;;;6347005;27;20047;-68
2021/04/28 11:16:47;;;;;;;19.23;14.98;;;;;;;;;;6348947;27;20066;-68
2021/04/28 11:19:51;;;;;;;19.77;15.45;;;;;;;;;;6348192;27;20043;-68
2021/04/28 11:22:53;;;;;;;19.48;16.60;;;;;;;;;;6345742;27;20206;-68
2021/04/28 11:26:26;;;;;;;22.60;17.02;;;;;;;;;;6352285;27;20122;-67
2021/04/28 11:29:27;;;;;;;23.75;16.23;;;;;;;;;;6348505;27;20478;-67
2021/04/28 11:32:30;;;;;;;22.48;15.25;;;;;;;;;;6349215;27;20044;-67
2021/04/28 11:35:31;;;;;;;19.40;15.87;;;;;;;;;;6343656;27;21342;-67
2021/04/28 11:38:34;;;;;;;21.52;16.13;;;;;;;;;;6353473;27;20047;-67
2021/04/28 11:41:35;;;;;;;18.75;15.60;;;;;;;;;;6357044;27;20051;-68
2021/04/28 11:44:38;;;;;;;18.73;15.45;;;;;;;;;;6355772;27;20054;-67
2021/04/28 11:47:39;;;;;;;32.40;25.73;;;;;;;;;;6354866;27;20066;-68
2021/04/28 11:50:50;;;;;;;19.85;16.30;;;;;;;;;;6348149;27;20039;-67
2021/04/28 11:53:54;;;;;;;21.90;16.33;;;;;;;;;;6353495;27;20431;-68
2021/04/28 11:56:55;;;;;;;22.30;17.23;;;;;;;;;;6362031;27;20043;-67
2021/04/28 12:00:02;;;;;;;23.33;15.95;;;;;;;;;;6357851;27;20134;-67
2021/04/28 12:03:03;;;;;;;18.00;15.20;;;;;;;;;;6333294;27;20574;-68
2021/04/28 12:06:26;;;;;;;15.82;14.07;;;;;;;;;;6335144;27;20414;-67
2021/04/28 12:09:34;;;;;;;18.30;15.85;;;;;;;;;;6327442;27;20454;-67
2021/04/28 12:12:36;;;;;;;17.70;15.63;;;;;;;;;;6334638;28;20158;-69
2021/04/28 12:15:37;;;;;;;16.83;15.13;;;;;;;;;;6332839;28;20085;-68
2021/04/28 12:18:38;;;;;;;16.00;14.10;;;;;;;;;;6336638;28;20094;-68
2021/04/28 12:21:50;;;;;;;17.75;15.93;;;;;;;;;;6317131;27;20586;-67
2021/04/28 12:24:54;;;;;;;18.23;15.98;;;;;;;;;;6316532;28;20048;-68
2021/04/28 12:27:55;;;;;;;17.27;15.50;;;;;;;;;;6338861;28;20039;-67
2021/04/28 12:30:56;;;;;;;18.23;15.80;;;;;;;;;;6333885;27;20586;-68
2021/04/28 12:33:57;;;;;;;17.25;15.02;;;;;;;;;;6337053;27;20043;-68
2021/04/28 12:37:16;;;;;;;15.98;14.27;;;;;;;;;;6333974;27;20044;-69
2021/04/28 12:40:18;;;;;;;20.10;15.50;;;;;;;;;;6327276;28;20048;-68
2021/04/28 12:43:21;;;;;;;17.98;14.77;;;;;;;;;;6334150;27;20463;-68
2021/04/28 12:46:22;;;;;;;16.50;14.73;;;;;;;;;;6331140;27;20074;-71
2021/04/28 12:49:23;;;;;;;17.23;14.25;;;;;;;;;;6334603;28;20134;-67
2021/04/28 12:52:24;;;;;;;17.75;15.45;;;;;;;;;;6337930;27;20395;-67
2021/04/28 12:55:29;;;;;;;18.77;15.13;;;;;;;;;;6336807;28;20123;-68
2021/04/28 12:58:42;;;;;;;16.52;14.15;;;;;;;;;;6338314;28;20630;-68
2021/04/28 13:01:46;;;;;;;15.77;14.10;;;;;;;;;;6333888;28;20048;-67
2021/04/28 13:04:48;;;;;;;17.15;14.70;;;;;;;;;;6332729;27;20055;-67
2021/04/28 13:07:50;;;;;;;19.33;14.43;;;;;;;;;;6333351;28;20043;-68
2021/04/28 13:11:09;;;;;;;17.23;15.10;;;;;;;;;;6334714;28;20130;-68
2021/04/28 13:14:16;;;;;;;16.98;15.27;;;;;;;;;;6336034;28;20053;-68
2021/04/28 13:17:17;;;;;;;17.40;15.52;;;;;;;;;;6331181;27;20055;-68
2021/04/28 13:20:18;;;;;;;15.65;14.05;;;;;;;;;;6329547;28;20048;-68
2021/04/28 13:23:20;;;;;;;16.75;13.98;;;;;;;;;;6329704;28;20158;-67
2021/04/28 13:26:23;;;;;;;16.35;14.23;;;;;;;;;;6309356;28;20598;-67
2021/04/28 13:29:24;;;;;;;15.75;13.18;;;;;;;;;;6318068;28;20533;-69
2021/04/28 13:32:29;;;;;;;17.88;13.50;;;;;;;;;;6340485;27;20047;-68
2021/04/28 13:35:33;;;;;;;15.52;13.70;;;;;;;;;;6330950;28;20052;-68
2021/04/28 13:38:46;;;;;;;16.98;13.82;;;;;;;;;;6333168;28;20126;-68
2021/04/28 13:41:57;;;;;;;15.05;13.48;;;;;;;;;;6322609;27;20151;-68
2021/04/28 13:44:58;;;;;;;15.65;12.93;;;;;;;;;;6325629;28;20088;-68
2021/04/28 13:47:59;;;;;;;19.60;14.25;;;;;;;;;;6336912;27;20057;-68
2021/04/28 13:51:00;;;;;;;15.60;12.45;;;;;;;;;;6321984;27;20061;-68
2021/04/28 13:54:01;;;;;;;13.77;11.55;;;;;;;;;;6322651;28;20044;-68
2021/04/28 13:57:04;;;;;;;14.32;11.55;;;;;;;;;;6323022;28;20048;-69
2021/04/28 14:00:06;;;;;;;15.20;11.13;;;;;;;;;;6326013;28;20054;-67
2021/04/28 14:03:08;;;;;;;13.65;12.32;;;;;;;;;;6339423;27;20095;-68
2021/04/28 14:06:10;;;;;;;13.95;11.35;;;;;;;;;;6328463;27;20044;-67
2021/04/28 14:09:12;;;;;;;11.73;10.32;;;;;;;;;;6323964;27;20097;-67
2021/04/28 14:12:14;;;;;;;12.60;10.75;;;;;;;;;;6336392;28;20542;-68
2021/04/28 14:15:15;;;;;;;12.45;11.15;;;;;;;;;;6325428;28;20151;-68
2021/04/28 14:18:16;;;;;;;11.30;10.10;;;;;;;;;;6337869;27;20043;-68
2021/04/28 14:21:17;;;;;;;12.35;9.88;;;;;;;;;;6327359;28;20138;-67
2021/04/28 14:24:19;;;;;;;11.95;10.13;;;;;;;;;;6330353;27;20679;-69
2021/04/28 14:27:21;;;;;;;15.65;10.13;;;;;;;;;;6334158;28;20054;-67
2021/04/28 14:30:22;;;;;;;10.75;9.65;;;;;;;;;;6333879;28;20051;-67
2021/04/28 14:33:23;;;;;;;11.65;10.32;;;;;;;;;;6328834;28;20811;-67
2021/04/28 14:36:24;;;;;;;15.98;9.70;;;;;;;;;;6332702;28;20135;-68
2021/04/28 14:39:26;;;;;;;12.30;10.13;;;;;;;;;;6329312;28;20375;-68
2021/04/28 14:42:28;;;;;;;15.98;10.02;;;;;;;;;;6321030;28;20125;-67
2021/04/28 14:45:29;;;;;;;12.15;10.82;;;;;;;;;;6319963;28;20043;-67
2021/04/28 14:48:30;;;;;;;14.73;11.63;;;;;;;;;;6326300;28;20806;-67
2021/04/28 14:51:31;;;;;;;15.00;12.68;;;;;;;;;;6332353;28;20521;-67
2021/04/28 14:54:32;;;;;;;13.57;12.05;;;;;;;;;;6324840;28;20098;-67
2021/04/28 14:57:34;;;;;;;17.35;12.13;;;;;;;;;;6326901;28;20508;-67
2021/04/28 15:00:35;;;;;;;13.65;12.25;;;;;;;;;;6327142;28;20047;-67
2021/04/28 15:03:36;;;;;;;16.38;11.90;;;;;;;;;;6331931;28;20035;-70
2021/04/28 15:06:38;;;;;;;13.98;12.50;;;;;;;;;;6332873;28;20165;-67
2021/04/28 15:09:39;;;;;;;14.23;12.57;;;;;;;;;;6329228;28;20066;-68
2021/04/28 15:12:42;;;;;;;15.07;12.15;;;;;;;;;;6332468;28;20061;-66
2021/04/28 15:15:43;;;;;;;15.37;12.33;;;;;;;;;;6334846;28;20148;-68
2021/04/28 15:18:44;;;;;;;15.68;12.50;;;;;;;;;;6336793;28;20564;-68
2021/04/28 15:21:47;;;;;;;16.00;12.48;;;;;;;;;;6328651;28;20043;-68
2021/04/28 15:24:48;;;;;;;12.75;11.00;;;;;;;;;;6333024;28;20268;-68
2021/04/28 15:27:50;;;;;;;15.77;11.90;;;;;;;;;;6324404;28;20099;-68
2021/04/28 15:30:52;;;;;;;13.65;11.15;;;;;;;;;;6324939;28;20122;-68
2021/04/28 15:33:53;;;;;;;13.38;11.45;;;;;;;;;;6331149;28;20126;-67
2021/04/28 15:36:54;;;;;;;18.35;12.85;;;;;;;;;;6327320;28;20158;-68
2021/04/28 15:39:56;;;;;;;13.90;12.13;;;;;;;;;;6330426;28;22652;-67
2021/04/28 15:42:57;;;;;;;14.43;12.52;;;;;;;;;;6340771;27;20048;-67
2021/04/28 15:45:58;;;;;;;13.98;12.40;;;;;;;;;;6336359;27;20123;-68
2021/04/28 15:48:59;;;;;;;18.27;12.60;;;;;;;;;;6326921;28;20040;-68
2021/04/28 15:52:01;;;;;;;13.48;11.77;;;;;;;;;;6328817;27;20067;-67
2021/04/28 15:55:03;;;;;;;16.67;14.15;;;;;;;;;;6335496;27;20059;-67
2021/04/28 15:58:05;;;;;;;17.27;13.50;;;;;;;;;;6333356;27;20051;-67
2021/04/28 16:01:06;;;;;;;15.18;13.55;;;;;;;;;;6335074;27;20155;-67
2021/04/28 16:04:07;;;;;;;16.23;14.07;;;;;;;;;;6303363;28;20135;-68
2021/04/28 16:07:08;;;;;;;18.33;14.50;;;;;;;;;;6313782;27;20055;-67
2021/04/28 16:10:10;;;;;;;16.45;14.35;;;;;;;;;;6337237;27;20054;-67
2021/04/28 16:13:12;;;;;;;16.10;14.40;;;;;;;;;;6323092;27;20082;-67
2021/04/28 16:16:13;;;;;;;19.50;15.60;;;;;;;;;;6332115;27;20135;-67
2021/04/28 16:19:14;;;;;;;19.67;15.68;;;;;;;;;;6335286;27;20056;-66
2021/04/28 16:22:15;;;;;;;19.95;17.33;;;;;;;;;;6337005;27;20448;-67
2021/04/28 16:25:16;;;;;;;21.48;17.42;;;;;;;;;;6336567;27;20044;-67
2021/04/28 16:28:18;;;;;;;19.15;17.15;;;;;;;;;;6312990;28;20199;-71
2021/04/28 16:31:20;;;;;;;20.55;18.35;;;;;;;;;;6311854;28;20127;-66
2021/04/28 16:34:21;;;;;;;21.33;18.98;;;;;;;;;;6322361;28;20672;-66
2021/04/28 16:37:22;;;;;;;24.13;18.98;;;;;;;;;;6327831;28;20544;-68
2021/04/28 16:40:24;;;;;;;20.67;17.98;;;;;;;;;;6320743;28;20134;-68
2021/04/28 16:43:26;;;;;;;20.10;17.25;;;;;;;;;;6324905;28;20044;-68
2021/04/28 16:46:27;;;;;;;21.02;17.92;;;;;;;;;;6326596;28;20496;-67
2021/04/28 16:49:29;;;;;;;19.30;16.65;;;;;;;;;;6326109;28;20056;-67
2021/04/28 16:52:30;;;;;;;21.10;17.15;;;;;;;;;;6324471;28;20073;-67
2021/04/28 16:55:31;;;;;;;20.48;17.35;;;;;;;;;;6331556;28;20461;-67
2021/04/28 16:58:33;;;;;;;20.02;16.52;;;;;;;;;;6324993;28;20052;-67
2021/04/28 17:01:34;;;;;;;20.38;16.52;;;;;;;;;;6333867;28;20127;-68
2021/04/28 17:04:35;;;;;;;18.80;14.80;;;;;;;;;;6329382;28;20043;-67
2021/04/28 17:07:36;;;;;;;19.23;15.95;;;;;;;;;;6327487;28;20147;-67
2021/04/28 17:10:37;;;;;;;21.27;16.95;;;;;;;;;;6331711;27;20116;-67
2021/04/28 17:13:39;;;;;;;19.30;15.38;;;;;;;;;;6326100;27;20052;-67
2021/04/28 17:16:40;;;;;;;19.63;15.98;;;;;;;;;;6333126;27;20408;-67
2021/04/28 17:19:42;;;;;;;20.15;16.75;;;;;;;;;;6330627;28;20142;-67
2021/04/28 17:22:43;;;;;;;19.70;16.48;;;;;;;;;;6331769;28;20042;-67
2021/04/28 17:25:44;;;;;;;19.38;16.70;;;;;;;;;;6331819;27;20075;-67
2021/04/28 17:28:46;;;;;;;22.60;17.50;;;;;;;;;;6333056;28;20047;-67
2021/04/28 17:31:47;;;;;;;23.63;17.88;;;;;;;;;;6331638;27;20135;-67
2021/04/28 17:34:48;;;;;;;20.17;17.48;;;;;;;;;;6322531;27;20059;-67
2021/04/28 17:37:50;;;;;;;22.13;17.92;;;;;;;;;;6326106;28;20055;-67
2021/04/28 17:40:51;;;;;;;24.25;19.67;;;;;;;;;;6324140;28;20055;-67
2021/04/28 17:43:53;;;;;;;23.33;19.27;;;;;;;;;;6335659;27;20043;-67